Winona Lake, IN

11:37 PM EDT on October 24, 2014 (GMT -0400)
Winona Lake | Change Station
CLOSE
Current Station
Personal Weather Station
Location: Winona Lake, IN
Elevation: 820 ft
Nearby Weather Stations

Elev 820 ft 41.22 °N, 85.82 °W | Updated 3 minutes ago

Mostly Cloudy
Mostly Cloudy
50.0 °F
Feels Like 50.0 °F
N
0.0
Wind Variable Wind from ESE
Gusts 0.0 mph

Today
High -- | Low -- °F
--% Chance of Precip.
Yesterday
High -- | Low -- °F
Precip. -- in
8:05 AM 6:49 PM
New Moon, 2% visible
Pressure 29.99 in
Visibility 7.0 miles
Clouds Mostly Cloudy 11000 ft
Dew Point 49 °F
Humidity 95%
Rainfall 0.09 in
Snow Depth Not available.
UV 0 out of 12
Pollen 1.10 out of 12
Air Quality Not available.
Flu Activity Sporadic
METAR KASW 250315Z AUTO 00000KT 7SM BKN110 08/08 A2999 RMK AO2

More Conditions Fewer Conditions

Pressure 29.99 in
Visibility 7.0 miles
Clouds Mostly Cloudy 11000 ft
Dew Point 49 °F
Humidity 95%
Rainfall 0.09 in
Snow Depth Not available.
UV 0 out of 12
Pollen 1.10 out of 12
Air Quality Not available.
Flu Activity Sporadic
METAR KASW 250315Z AUTO 00000KT 7SM BKN110 08/08 A2999 RMK AO2

More Conditions Fewer Conditions

10-Day Weather Forecast

Almanac

Astronomy

Oct. 24, 2014 Rise Set
Actual Time 8:05 AM EDT 6:49 PM EDT
Civil Twilight 7:36 AM EDT 7:17 PM EDT
Nautical Twilight 7:04 AM EDT 7:49 PM EDT
Astronomical Twilight 6:32 AM EDT 8:21 PM EDT
Moon 8:43 AM EDT (10/24) 7:28 PM EDT (10/24)
Length of Visible Light 11h 40m
Length of Day
10h 44m
Tomorrow will be 2m 33s shorter.
New Moon, 2% of the Moon is Illuminated
Today
New Moon
Oct 30
First Quarter
Nov 6
Full
Nov 14
Last Quarter
Nov 22
New

Today's Extremes

State Highs State Lows

Community

WunderPhotos

Upload Photos

1,764,771 photos uploaded!

Nearby

Snow Depth

Station Depth Elevation
No new snow has been reported.

Earthquake Activity

City Distance Mag. Time & Date
No recent earthquake activity has been reported nearby.
Minimum magnitude displayed is 2.5.

Coastal Water Temperatures

Place Temperature
No Stations Reporting

Nearby Weather Stations